Flight Track Log - Related Links

Times and Time Zones

All times are in EST time to prevent confusion due to time zone crossing. See the GUG703 flight status page for this flight to view local times or setup timezone preferences in your user account.


Time Position Orientation Groundspeed Altitude Reporting Facility
EST Latitude Longitude Course Direction KTS MPH feet Rate Location/Type
Fri 10:28:00 PM 15.1086 -88.9674 251° West  Level Estimated
Fri 10:29:00 PM 15.0893 -89.0253 251° West  Level Estimated
Fri 10:30:00 PM 15.0700 -89.0832 251° West  Level Estimated
Fri 10:31:00 PM 15.0507 -89.1410 251° West  Level Estimated
Fri 10:32:00 PM 15.0314 -89.1989 251° West  Level Estimated
Fri 10:33:00 PM 15.0121 -89.2567 251° West  Level Estimated
Fri 10:34:00 PM 14.9928 -89.3146 251° West  Level Estimated
Fri 10:35:00 PM 14.9734 -89.3724 251° West  Level Estimated
Fri 10:36:00 PM 14.9541 -89.4302 251° West  Level Estimated
Fri 10:37:00 PM 14.9347 -89.4880 251° West  Level Estimated
Fri 10:38:00 PM 14.9153 -89.5458 251° West  Level Estimated
Fri 10:39:00 PM 14.8959 -89.6036 251° West  Level Estimated
Fri 10:40:00 PM 14.8765 -89.6614 251° West  Level Estimated
Fri 10:41:00 PM 14.8571 -89.7191 251° West  Level Estimated
Fri 10:42:00 PM 14.8376 -89.7769 251° West  Level Estimated
Fri 10:43:00 PM 14.8182 -89.8346 251° West  Level Estimated
Fri 10:44:00 PM 14.7987 -89.8924 251° West  Level Estimated
Fri 10:45:00 PM 14.7792 -89.9501 251° West  Level Estimated
Fri 10:46:00 PM 14.7597 -90.0078 251° West  Level Estimated
Fri 10:47:00 PM 14.7402 -90.0655 251° West  Level Estimated
Fri 10:48:00 PM 14.7206 -90.1232 251° West  Level Estimated
Fri 10:49:00 PM 14.7011 -90.1809 251° West  Level Estimated
Fri 10:50:00 PM 14.6815 -90.2385 251° West  Level Estimated
Fri 10:51:00 PM 14.6620 -90.2962 251° West  Level Estimated
Fri 10:52:00 PM 14.6424 -90.3539 251° West  Level Estimated
Fri 10:53:00 PM 14.6228 -90.4115 251° West  Level Estimated
Fri 10:54:00 PM 14.6032 -90.4691 251° West  Level Estimated
Fri 10:55:00 PM 14.5835 -90.5267 251° West  Level Estimated
Fri 10:56:00 PM 14.5833 -90.5275 251° West  Level Estimated
Fri 10:57:00 PM 14.5833 -90.5275 292° West  Level Estimated
Fri 10:58:00 PM 14.5833 -90.5275 68° East  Level Estimated
Fri 10:59:00 PM 14.5833 -90.5275 292° West  Level Estimated
Fri 11:00:00 PM 14.5833 -90.5275 68° East  Level Estimated
Fri 11:01:00 PM 14.5833 -90.5275 292° West  Level Estimated
Fri 11:02:00 PM 14.5833 -90.5275 68° East  Level Estimated
Fri 11:03:00 PM 14.5833 -90.5275 292° West  Level Estimated
Fri 11:04:00 PM 14.5833 -90.5275 68° East  Level Estimated
Fri 11:05:00 PM 14.5833 -90.5275 292° West  Level Estimated
Fri 11:06:00 PM 14.5833 -90.5275 68° East  Level Estimated
Fri 11:07:00 PM 14.5833 -90.5275 292° West  Level Estimated
Fri 11:08:00 PM 14.5833 -90.5275 68° East  Level Estimated

Login

Don't have an account? Register now (free) for customized features, flight alerts, and more!